sensor_id;sensor_type;location;lat;lon;timestamp;pressure;altitude;pressure_sealevel;temperature;humidity
68301;BME280;55146;47.468;18.806;2023-04-23T00:00:47;99809.78;;;10.93;71.88
68301;BME280;55146;47.468;18.806;2023-04-23T00:03:13;99798.78;;;10.93;71.79
68301;BME280;55146;47.468;18.806;2023-04-23T00:05:39;99803.78;;;10.91;71.65
68301;BME280;55146;47.468;18.806;2023-04-23T00:08:07;99805.97;;;10.89;71.83
68301;BME280;55146;47.468;18.806;2023-04-23T00:10:32;99807.34;;;10.87;72.27
68301;BME280;55146;47.468;18.806;2023-04-23T00:12:58;99802.16;;;10.80;72.19
68301;BME280;55146;47.468;18.806;2023-04-23T00:15:24;99806.84;;;10.75;72.70
68301;BME280;55146;47.468;18.806;2023-04-23T00:17:49;99803.03;;;10.71;72.97
68301;BME280;55146;47.468;18.806;2023-04-23T00:20:15;99798.41;;;10.66;72.72
68301;BME280;55146;47.468;18.806;2023-04-23T00:22:41;99802.28;;;10.60;72.62
68301;BME280;55146;47.468;18.806;2023-04-23T00:25:08;99797.88;;;10.59;72.70
68301;BME280;55146;47.468;18.806;2023-04-23T00:27:33;99797.91;;;10.54;72.76
68301;BME280;55146;47.468;18.806;2023-04-23T00:29:59;99793.22;;;10.49;72.98
68301;BME280;55146;47.468;18.806;2023-04-23T00:32:24;99797.91;;;10.44;72.98
68301;BME280;55146;47.468;18.806;2023-04-23T00:34:50;99796.56;;;10.41;73.40
68301;BME280;55146;47.468;18.806;2023-04-23T00:37:16;99793.28;;;10.39;73.76
68301;BME280;55146;47.468;18.806;2023-04-23T00:39:41;99792.72;;;10.37;73.99
68301;BME280;55146;47.468;18.806;2023-04-23T00:42:06;99796.59;;;10.31;73.89
68301;BME280;55146;47.468;18.806;2023-04-23T00:44:37;99790.84;;;10.28;73.95
68301;BME280;55146;47.468;18.806;2023-04-23T00:47:03;99788.63;;;10.25;74.14
68301;BME280;55146;47.468;18.806;2023-04-23T00:49:29;99790.31;;;10.21;74.39
68301;BME280;55146;47.468;18.806;2023-04-23T00:51:55;99796.91;;;10.20;74.39
68301;BME280;55146;47.468;18.806;2023-04-23T00:54:20;99791.41;;;10.20;74.63
68301;BME280;55146;47.468;18.806;2023-04-23T00:56:47;99785.91;;;10.14;74.62
68301;BME280;55146;47.468;18.806;2023-04-23T00:59:13;99791.38;;;10.14;74.59
68301;BME280;55146;47.468;18.806;2023-04-23T01:01:38;99793.31;;;10.14;75.03
68301;BME280;55146;47.468;18.806;2023-04-23T01:04:05;99795.81;;;10.10;74.95
68301;BME280;55146;47.468;18.806;2023-04-23T01:06:30;99792.25;;;10.05;75.20
68301;BME280;55146;47.468;18.806;2023-04-23T01:08:56;99784.81;;;10.00;75.41
68301;BME280;55146;47.468;18.806;2023-04-23T01:11:22;99785.66;;;10.01;75.42
68301;BME280;55146;47.468;18.806;2023-04-23T01:13:48;99792.53;;;9.98;75.37
68301;BME280;55146;47.468;18.806;2023-04-23T01:16:14;99784.56;;;9.97;75.79
68301;BME280;55146;47.468;18.806;2023-04-23T01:18:39;99786.75;;;9.95;75.64
68301;BME280;55146;47.468;18.806;2023-04-23T01:21:05;99780.19;;;9.91;75.68
68301;BME280;55146;47.468;18.806;2023-04-23T01:23:31;99784.31;;;9.88;76.03
68301;BME280;55146;47.468;18.806;2023-04-23T01:25:56;99776.34;;;9.82;75.94
68301;BME280;55146;47.468;18.806;2023-04-23T01:28:23;99786.81;;;9.80;76.18
68301;BME280;55146;47.468;18.806;2023-04-23T01:30:49;99782.41;;;9.79;76.22
68301;BME280;55146;47.468;18.806;2023-04-23T01:33:15;99782.41;;;9.79;76.24
68301;BME280;55146;47.468;18.806;2023-04-23T01:35:42;99783.50;;;9.78;76.52
68301;BME280;55146;47.468;18.806;2023-04-23T01:38:10;99786.50;;;9.76;76.64
68301;BME280;55146;47.468;18.806;2023-04-23T01:40:38;99785.16;;;9.73;76.83
68301;BME280;55146;47.468;18.806;2023-04-23T01:43:04;99782.69;;;9.72;76.92
68301;BME280;55146;47.468;18.806;2023-04-23T01:45:30;99782.13;;;9.70;77.15
68301;BME280;55146;47.468;18.806;2023-04-23T01:47:55;99782.94;;;9.70;77.14
68301;BME280;55146;47.468;18.806;2023-04-23T01:50:21;99778.84;;;9.68;76.85
68301;BME280;55146;47.468;18.806;2023-04-23T01:52:49;99778.84;;;9.68;76.92
68301;BME280;55146;47.468;18.806;2023-04-23T01:55:14;99783.78;;;9.66;77.09
68301;BME280;55146;47.468;18.806;2023-04-23T01:57:39;99771.72;;;9.62;77.20
68301;BME280;55146;47.468;18.806;2023-04-23T02:00:10;99778.31;;;9.61;77.52
68301;BME280;55146;47.468;18.806;2023-04-23T02:02:37;99773.63;;;9.61;77.58
68301;BME280;55146;47.468;18.806;2023-04-23T02:05:03;99768.41;;;9.60;77.55
68301;BME280;55146;47.468;18.806;2023-04-23T02:07:30;99767.84;;;9.58;77.49
68301;BME280;55146;47.468;18.806;2023-04-23T02:09:56;99771.69;;;9.57;77.51
68301;BME280;55146;47.468;18.806;2023-04-23T02:12:22;99771.69;;;9.57;nan
68301;BME280;55146;47.468;18.806;2023-04-23T02:14:47;99773.91;;;9.55;77.99
68301;BME280;55146;47.468;18.806;2023-04-23T02:17:12;99770.88;;;9.51;78.09
68301;BME280;55146;47.468;18.806;2023-04-23T02:19:38;99759.38;;;9.49;78.09
68301;BME280;55146;47.468;18.806;2023-04-23T02:22:03;99756.34;;;9.46;78.03
68301;BME280;55146;47.468;18.806;2023-04-23T02:24:28;99763.47;;;9.47;77.93
68301;BME280;55146;47.468;18.806;2023-04-23T02:26:54;99762.13;;;9.44;77.92
68301;BME280;55146;47.468;18.806;2023-04-23T02:29:19;99761.56;;;9.42;77.74
68301;BME280;55146;47.468;18.806;2023-04-23T02:31:45;99760.19;;;9.40;77.56
68301;BME280;55146;47.468;18.806;2023-04-23T02:34:10;99751.41;;;9.32;77.51
68301;BME280;55146;47.468;18.806;2023-04-23T02:36:36;99754.44;;;9.31;77.61
68301;BME280;55146;47.468;18.806;2023-04-23T02:39:02;99756.06;;;9.27;77.56
68301;BME280;55146;47.468;18.806;2023-04-23T02:41:28;99754.16;;;9.17;77.37
68301;BME280;55146;47.468;18.806;2023-04-23T02:43:53;99756.59;;;9.14;77.48
68301;BME280;55146;47.468;18.806;2023-04-23T02:46:18;99755.25;;;9.11;77.46
68301;BME280;55146;47.468;18.806;2023-04-23T02:48:43;99765.94;;;9.08;77.78
68301;BME280;55146;47.468;18.806;2023-04-23T02:51:11;99758.81;;;9.07;78.00
68301;BME280;55146;47.468;18.806;2023-04-23T02:53:37;99760.69;;;9.01;78.02
68301;BME280;55146;47.468;18.806;2023-04-23T02:56:02;99757.69;;;8.98;78.14
68301;BME280;55146;47.468;18.806;2023-04-23T02:58:28;99747.28;;;8.95;78.30
68301;BME280;55146;47.468;18.806;2023-04-23T03:00:53;99742.31;;;8.91;78.00
68301;BME280;55146;47.468;18.806;2023-04-23T03:03:18;99751.91;;;8.89;77.99
68301;BME280;55146;47.468;18.806;2023-04-23T03:05:44;99752.19;;;8.87;77.87
68301;BME280;55146;47.468;18.806;2023-04-23T03:08:09;99755.47;;;8.89;77.94
68301;BME280;55146;47.468;18.806;2023-04-23T03:10:35;99747.25;;;8.84;78.02
68301;BME280;55146;47.468;18.806;2023-04-23T03:13:00;99755.47;;;8.79;78.15
68301;BME280;55146;47.468;18.806;2023-04-23T03:15:25;99752.16;;;8.77;78.46
68301;BME280;55146;47.468;18.806;2023-04-23T03:17:51;99751.63;;;8.75;78.72
68301;BME280;55146;47.468;18.806;2023-04-23T03:20:18;99754.06;;;8.72;78.87
68301;BME280;55146;47.468;18.806;2023-04-23T03:22:43;99746.94;;;8.66;78.70
68301;BME280;55146;47.468;18.806;2023-04-23T03:25:10;99743.09;;;8.62;78.74
68301;BME280;55146;47.468;18.806;2023-04-23T03:27:37;99749.94;;;8.64;78.68
68301;BME280;55146;47.468;18.806;2023-04-23T03:30:15;99755.97;;;8.66;78.57
68301;BME280;55146;47.468;18.806;2023-04-23T03:32:40;99746.09;;;8.70;78.22
68301;BME280;55146;47.468;18.806;2023-04-23T03:35:06;99748.06;;;8.70;78.07
68301;BME280;55146;47.468;18.806;2023-04-23T03:37:33;99752.97;;;8.68;78.20
68301;BME280;55146;47.468;18.806;2023-04-23T03:39:59;99756.53;;;8.68;78.30
68301;BME280;55146;47.468;18.806;2023-04-23T03:42:27;99760.94;;;8.69;78.45
68301;BME280;55146;47.468;18.806;2023-04-23T03:44:52;99765.03;;;8.67;78.28
68301;BME280;55146;47.468;18.806;2023-04-23T03:47:18;99770.50;;;8.62;78.30
68301;BME280;55146;47.468;18.806;2023-04-23T03:49:43;99763.38;;;8.61;78.71
68301;BME280;55146;47.468;18.806;2023-04-23T03:52:09;99760.62;;;8.61;78.84
68301;BME280;55146;47.468;18.806;2023-04-23T03:54:34;99762.28;;;8.57;78.84
68301;BME280;55146;47.468;18.806;2023-04-23T03:57:00;99773.25;;;8.57;78.95
68301;BME280;55146;47.468;18.806;2023-04-23T03:59:26;99768.84;;;8.56;78.70
68301;BME280;55146;47.468;18.806;2023-04-23T04:01:51;99765.53;;;8.59;78.49
68301;BME280;55146;47.468;18.806;2023-04-23T04:04:16;99766.66;;;8.58;78.32
68301;BME280;55146;47.468;18.806;2023-04-23T04:06:42;99766.09;;;8.56;78.36
68301;BME280;55146;47.468;18.806;2023-04-23T04:09:08;99766.38;;;8.54;78.55
68301;BME280;55146;47.468;18.806;2023-04-23T04:11:33;99770.75;;;8.55;78.82
68301;BME280;55146;47.468;18.806;2023-04-23T04:13:59;99766.63;;;8.52;78.54
68301;BME280;55146;47.468;18.806;2023-04-23T04:16:24;99763.06;;;8.52;78.92
68301;BME280;55146;47.468;18.806;2023-04-23T04:18:50;99768.59;;;8.57;79.16
68301;BME280;55146;47.468;18.806;2023-04-23T04:21:15;99769.66;;;8.56;78.79
68301;BME280;55146;47.468;18.806;2023-04-23T04:23:42;99761.97;;;8.58;79.38
68301;BME280;55146;47.468;18.806;2023-04-23T04:26:07;99766.94;;;8.56;79.48
68301;BME280;55146;47.468;18.806;2023-04-23T04:28:32;99768.28;;;8.53;79.48
68301;BME280;55146;47.468;18.806;2023-04-23T04:31:00;99768.84;;;8.50;79.57
68301;BME280;55146;47.468;18.806;2023-04-23T04:33:26;99769.66;;;8.51;79.75
68301;BME280;55146;47.468;18.806;2023-04-23T04:35:53;99769.66;;;8.51;79.81
68301;BME280;55146;47.468;18.806;2023-04-23T04:38:19;99773.22;;;8.51;79.97
68301;BME280;55146;47.468;18.806;2023-04-23T04:40:46;99778.16;;;8.55;80.61
68301;BME280;55146;47.468;18.806;2023-04-23T04:43:13;99776.50;;;8.59;80.89
68301;BME280;55146;47.468;18.806;2023-04-23T04:45:40;99778.75;;;8.67;81.14
68301;BME280;55146;47.468;18.806;2023-04-23T04:48:06;99775.75;;;8.68;81.36
68301;BME280;55146;47.468;18.806;2023-04-23T04:50:32;99782.06;;;8.74;81.93
68301;BME280;55146;47.468;18.806;2023-04-23T04:52:57;99779.59;;;8.77;82.30
68301;BME280;55146;47.468;18.806;2023-04-23T04:55:22;99786.72;;;8.78;82.69
68301;BME280;55146;47.468;18.806;2023-04-23T04:57:48;99782.91;;;8.84;83.01
68301;BME280;55146;47.468;18.806;2023-04-23T05:00:24;99786.22;;;8.86;82.96
68301;BME280;55146;47.468;18.806;2023-04-23T05:02:54;99783.22;;;8.93;83.10
68301;BME280;55146;47.468;18.806;2023-04-23T05:05:20;99786.50;;;9.00;83.24
68301;BME280;55146;47.468;18.806;2023-04-23T05:07:46;99789.53;;;9.04;83.50
68301;BME280;55146;47.468;18.806;2023-04-23T05:10:13;99792.84;;;9.11;83.23
68301;BME280;55146;47.468;18.806;2023-04-23T05:12:38;99791.75;;;9.17;82.75
68301;BME280;55146;47.468;18.806;2023-04-23T05:15:08;99792.56;;;9.22;82.66
68301;BME280;55146;47.468;18.806;2023-04-23T05:17:34;99802.47;;;9.28;82.52
68301;BME280;55146;47.468;18.806;2023-04-23T05:19:59;99784.62;;;9.36;82.86
68301;BME280;55146;47.468;18.806;2023-04-23T05:22:25;99786.53;;;9.46;82.64
68301;BME280;55146;47.468;18.806;2023-04-23T05:24:51;99790.13;;;9.56;82.33
68301;BME280;55146;47.468;18.806;2023-04-23T05:27:17;99791.78;;;9.62;81.67
68301;BME280;55146;47.468;18.806;2023-04-23T05:29:42;99783.78;;;9.71;81.51
68301;BME280;55146;47.468;18.806;2023-04-23T05:32:08;99785.97;;;9.79;80.58
68301;BME280;55146;47.468;18.806;2023-04-23T05:34:33;99790.34;;;9.90;80.17
68301;BME280;55146;47.468;18.806;2023-04-23T05:36:58;99787.87;;;9.99;79.87
68301;BME280;55146;47.468;18.806;2023-04-23T05:39:24;99785.91;;;10.09;79.07
68301;BME280;55146;47.468;18.806;2023-04-23T05:41:49;99784.25;;;10.19;79.74
68301;BME280;55146;47.468;18.806;2023-04-23T05:44:15;99790.84;;;10.28;79.48
68301;BME280;55146;47.468;18.806;2023-04-23T05:46:40;99782.84;;;10.36;79.40
68301;BME280;55146;47.468;18.806;2023-04-23T05:49:05;99786.63;;;10.50;75.92
68301;BME280;55146;47.468;18.806;2023-04-23T05:51:31;99787.94;;;10.63;72.97
68301;BME280;55146;47.468;18.806;2023-04-23T05:53:56;99788.69;;;10.79;73.34
68301;BME280;55146;47.468;18.806;2023-04-23T05:56:21;99785.59;;;10.90;73.35
68301;BME280;55146;47.468;18.806;2023-04-23T05:58:47;99791.00;;;11.06;72.82
68301;BME280;55146;47.468;18.806;2023-04-23T06:01:12;99786.28;;;11.11;72.58
68301;BME280;55146;47.468;18.806;2023-04-23T06:03:37;99790.59;;;11.27;73.30
68301;BME280;55146;47.468;18.806;2023-04-23T06:06:05;99792.44;;;11.37;71.73
68301;BME280;55146;47.468;18.806;2023-04-23T06:08:31;99793.44;;;11.51;72.60
68301;BME280;55146;47.468;18.806;2023-04-23T06:10:56;99793.81;;;11.73;72.49
68301;BME280;55146;47.468;18.806;2023-04-23T06:13:22;99797.44;;;11.98;70.24
68301;BME280;55146;47.468;18.806;2023-04-23T06:15:47;99804.00;;;12.31;69.43
68301;BME280;55146;47.468;18.806;2023-04-23T06:18:12;99800.50;;;12.68;68.98
68301;BME280;55146;47.468;18.806;2023-04-23T06:20:38;99794.00;;;13.01;66.34
68301;BME280;55146;47.468;18.806;2023-04-23T06:23:06;99796.53;;;13.35;66.08
68301;BME280;55146;47.468;18.806;2023-04-23T06:25:32;99804.69;;;13.77;64.49
68301;BME280;55146;47.468;18.806;2023-04-23T06:27:57;99799.28;;;14.18;66.18
68301;BME280;55146;47.468;18.806;2023-04-23T06:30:22;99798.78;;;14.57;66.72
68301;BME280;55146;47.468;18.806;2023-04-23T06:32:49;99803.91;;;14.91;64.22
68301;BME280;55146;47.468;18.806;2023-04-23T06:35:14;99800.00;;;15.28;63.86
68301;BME280;55146;47.468;18.806;2023-04-23T06:37:46;99794.31;;;15.69;60.02
68301;BME280;55146;47.468;18.806;2023-04-23T06:40:11;99796.31;;;16.00;57.32
68301;BME280;55146;47.468;18.806;2023-04-23T06:42:36;99793.06;;;16.29;54.18
68301;BME280;55146;47.468;18.806;2023-04-23T06:45:02;99791.34;;;16.50;53.64
68301;BME280;55146;47.468;18.806;2023-04-23T06:47:29;99792.78;;;16.78;53.07
68301;BME280;55146;47.468;18.806;2023-04-23T06:49:55;99794.91;;;16.98;50.88
68301;BME280;55146;47.468;18.806;2023-04-23T06:52:20;99787.59;;;17.03;50.70
68301;BME280;55146;47.468;18.806;2023-04-23T06:54:46;99789.56;;;17.19;51.61
68301;BME280;55146;47.468;18.806;2023-04-23T06:57:11;99793.34;;;17.58;49.76
68301;BME280;55146;47.468;18.806;2023-04-23T06:59:36;99794.00;;;17.81;49.61
68301;BME280;55146;47.468;18.806;2023-04-23T07:02:02;99784.25;;;18.12;50.38
68301;BME280;55146;47.468;18.806;2023-04-23T07:04:27;99789.88;;;18.42;45.91
68301;BME280;55146;47.468;18.806;2023-04-23T07:06:53;99782.06;;;18.73;46.89
68301;BME280;55146;47.468;18.806;2023-04-23T07:09:19;99781.72;;;19.04;43.92
68301;BME280;55146;47.468;18.806;2023-04-23T07:11:44;99778.34;;;19.19;41.75
68301;BME280;55146;47.468;18.806;2023-04-23T07:14:10;99788.53;;;19.36;41.81
68301;BME280;55146;47.468;18.806;2023-04-23T07:16:35;99781.41;;;19.68;41.37
68301;BME280;55146;47.468;18.806;2023-04-23T07:19:01;99778.44;;;19.85;35.95
68301;BME280;55146;47.468;18.806;2023-04-23T07:21:27;99775.44;;;20.02;38.17
68301;BME280;55146;47.468;18.806;2023-04-23T07:23:56;99777.16;;;19.95;35.57
68301;BME280;55146;47.468;18.806;2023-04-23T07:26:24;99767.63;;;19.96;35.25
68301;BME280;55146;47.468;18.806;2023-04-23T07:28:49;99769.66;;;20.07;35.12
68301;BME280;55146;47.468;18.806;2023-04-23T07:31:15;99776.31;;;20.27;34.68
68301;BME280;55146;47.468;18.806;2023-04-23T07:33:41;99778.84;;;20.53;34.18
68301;BME280;55146;47.468;18.806;2023-04-23T07:36:06;99774.06;;;20.53;33.07
68301;BME280;55146;47.468;18.806;2023-04-23T07:38:31;99774.63;;;20.47;33.44
68301;BME280;55146;47.468;18.806;2023-04-23T07:40:57;99772.06;;;20.42;33.43
68301;BME280;55146;47.468;18.806;2023-04-23T07:43:22;99768.47;;;20.53;34.08
68301;BME280;55146;47.468;18.806;2023-04-23T07:45:48;99774.75;;;20.63;32.13
68301;BME280;55146;47.468;18.806;2023-04-23T07:48:13;99773.34;;;20.81;32.08
68301;BME280;55146;47.468;18.806;2023-04-23T07:50:38;99767.75;;;20.69;32.68
68301;BME280;55146;47.468;18.806;2023-04-23T07:53:04;99766.81;;;21.01;32.52
68301;BME280;55146;47.468;18.806;2023-04-23T07:55:29;99770.53;;;21.17;32.00
68301;BME280;55146;47.468;18.806;2023-04-23T07:57:54;99764.56;;;21.07;32.54
68301;BME280;55146;47.468;18.806;2023-04-23T08:00:20;99768.31;;;21.11;31.44
68301;BME280;55146;47.468;18.806;2023-04-23T08:02:45;99763.41;;;21.08;32.89
68301;BME280;55146;47.468;18.806;2023-04-23T08:05:11;99770.19;;;21.19;31.86
68301;BME280;55146;47.468;18.806;2023-04-23T08:07:36;99773.13;;;20.98;33.49
68301;BME280;55146;47.468;18.806;2023-04-23T08:10:04;99771.69;;;21.28;33.26
68301;BME280;55146;47.468;18.806;2023-04-23T08:12:31;99773.28;;;21.42;33.05
68301;BME280;55146;47.468;18.806;2023-04-23T08:14:58;99774.72;;;21.63;32.96
68301;BME280;55146;47.468;18.806;2023-04-23T08:17:23;99765.44;;;21.75;33.74
68301;BME280;55146;47.468;18.806;2023-04-23T08:19:49;99770.72;;;21.92;32.68
68301;BME280;55146;47.468;18.806;2023-04-23T08:22:15;99768.38;;;21.94;32.52
68301;BME280;55146;47.468;18.806;2023-04-23T08:24:42;99764.37;;;22.07;33.60
68301;BME280;55146;47.468;18.806;2023-04-23T08:27:09;99769.28;;;22.42;32.22
68301;BME280;55146;47.468;18.806;2023-04-23T08:29:34;99763.13;;;22.52;31.87
68301;BME280;55146;47.468;18.806;2023-04-23T08:32:00;99759.50;;;22.36;32.92
68301;BME280;55146;47.468;18.806;2023-04-23T08:34:25;99764.75;;;22.53;32.18
68301;BME280;55146;47.468;18.806;2023-04-23T08:36:51;99760.09;;;21.98;32.21
68301;BME280;55146;47.468;18.806;2023-04-23T08:39:16;99762.84;;;22.26;31.67
68301;BME280;55146;47.468;18.806;2023-04-23T08:41:43;99758.88;;;22.27;32.43
68301;BME280;55146;47.468;18.806;2023-04-23T08:44:21;99754.97;;;22.47;31.04
68301;BME280;55146;47.468;18.806;2023-04-23T08:46:47;99760.16;;;22.45;30.85
68301;BME280;55146;47.468;18.806;2023-04-23T08:49:14;99757.97;;;22.70;31.32
68301;BME280;55146;47.468;18.806;2023-04-23T08:51:47;99760.41;;;22.87;30.92
68301;BME280;55146;47.468;18.806;2023-04-23T08:54:15;99753.41;;;22.96;31.11
68301;BME280;55146;47.468;18.806;2023-04-23T08:56:43;99753.28;;;22.74;31.68
68301;BME280;55146;47.468;18.806;2023-04-23T08:59:09;99757.25;;;22.57;32.08
68301;BME280;55146;47.468;18.806;2023-04-23T09:01:35;99755.25;;;22.89;30.97
68301;BME280;55146;47.468;18.806;2023-04-23T09:04:01;99748.94;;;23.11;31.24
68301;BME280;55146;47.468;18.806;2023-04-23T09:06:28;99744.53;;;23.29;30.84
68301;BME280;55146;47.468;18.806;2023-04-23T09:08:54;99740.31;;;23.20;30.64
68301;BME280;55146;47.468;18.806;2023-04-23T09:11:22;99743.94;;;23.20;30.54
68301;BME280;55146;47.468;18.806;2023-04-23T09:13:48;99737.06;;;23.18;30.23
68301;BME280;55146;47.468;18.806;2023-04-23T09:16:13;99748.34;;;23.21;31.48
68301;BME280;55146;47.468;18.806;2023-04-23T09:18:39;99741.63;;;23.07;31.70
68301;BME280;55146;47.468;18.806;2023-04-23T09:21:05;99744.31;;;23.19;29.57
68301;BME280;55146;47.468;18.806;2023-04-23T09:23:31;99738.03;;;23.25;30.07
68301;BME280;55146;47.468;18.806;2023-04-23T09:25:56;99731.38;;;23.33;29.81
68301;BME280;55146;47.468;18.806;2023-04-23T09:28:33;99742.78;;;23.60;29.69
68301;BME280;55146;47.468;18.806;2023-04-23T09:31:00;99730.44;;;23.64;28.74
68301;BME280;55146;47.468;18.806;2023-04-23T09:33:27;99733.00;;;23.34;29.29
68301;BME280;55146;47.468;18.806;2023-04-23T09:35:52;99735.44;;;23.36;30.56
68301;BME280;55146;47.468;18.806;2023-04-23T09:38:20;99726.53;;;23.69;30.20
68301;BME280;55146;47.468;18.806;2023-04-23T09:40:46;99724.84;;;24.06;29.27
68301;BME280;55146;47.468;18.806;2023-04-23T09:43:11;99724.84;;;24.06;28.60
68301;BME280;55146;47.468;18.806;2023-04-23T09:45:49;99724.56;;;24.34;28.03
68301;BME280;55146;47.468;18.806;2023-04-23T09:48:14;99720.97;;;24.14;27.87
68301;BME280;55146;47.468;18.806;2023-04-23T09:50:40;99720.31;;;24.02;28.58
68301;BME280;55146;47.468;18.806;2023-04-23T09:53:07;99714.84;;;24.09;30.47
68301;BME280;55146;47.468;18.806;2023-04-23T09:55:34;99714.00;;;24.28;29.23
68301;BME280;55146;47.468;18.806;2023-04-23T09:58:03;99713.09;;;24.01;29.65
68301;BME280;55146;47.468;18.806;2023-04-23T10:00:34;99710.22;;;23.97;27.81
68301;BME280;55146;47.468;18.806;2023-04-23T10:03:00;99709.44;;;23.77;27.71
68301;BME280;55146;47.468;18.806;2023-04-23T10:05:26;99701.84;;;23.59;27.15
68301;BME280;55146;47.468;18.806;2023-04-23T10:07:51;99705.59;;;23.66;28.05
68301;BME280;55146;47.468;18.806;2023-04-23T10:10:18;99699.62;;;23.68;27.16
68301;BME280;55146;47.468;18.806;2023-04-23T10:12:45;99693.06;;;23.60;28.74
68301;BME280;55146;47.468;18.806;2023-04-23T10:15:13;99700.78;;;23.86;27.19
68301;BME280;55146;47.468;18.806;2023-04-23T10:17:40;99690.41;;;23.90;26.32
68301;BME280;55146;47.468;18.806;2023-04-23T10:20:06;99696.47;;;23.92;26.71
68301;BME280;55146;47.468;18.806;2023-04-23T10:22:33;99690.75;;;23.47;26.74
68301;BME280;55146;47.468;18.806;2023-04-23T10:25:01;99688.06;;;23.15;26.07
68301;BME280;55146;47.468;18.806;2023-04-23T10:27:32;99678.47;;;23.16;26.92
68301;BME280;55146;47.468;18.806;2023-04-23T10:30:01;99677.88;;;23.46;28.39
68301;BME280;55146;47.468;18.806;2023-04-23T10:32:29;99683.22;;;23.93;28.47
68301;BME280;55146;47.468;18.806;2023-04-23T10:34:57;99685.31;;;23.76;27.51
68301;BME280;55146;47.468;18.806;2023-04-23T10:37:24;99679.72;;;23.76;28.54
68301;BME280;55146;47.468;18.806;2023-04-23T10:39:54;99675.03;;;23.61;27.53
68301;BME280;55146;47.468;18.806;2023-04-23T10:42:23;99665.31;;;23.59;29.14
68301;BME280;55146;47.468;18.806;2023-04-23T10:44:49;99652.25;;;23.89;27.91
68301;BME280;55146;47.468;18.806;2023-04-23T10:47:15;99653.00;;;24.09;27.10
68301;BME280;55146;47.468;18.806;2023-04-23T10:49:42;99663.06;;;24.10;25.91
68301;BME280;55146;47.468;18.806;2023-04-23T10:52:15;99664.06;;;24.21;26.09
68301;BME280;55146;47.468;18.806;2023-04-23T10:54:47;99656.19;;;24.07;24.09
68301;BME280;55146;47.468;18.806;2023-04-23T10:57:13;99656.00;;;24.19;24.63
68301;BME280;55146;47.468;18.806;2023-04-23T10:59:40;99655.56;;;24.40;25.26
68301;BME280;55146;47.468;18.806;2023-04-23T11:02:15;99655.56;;;24.67;25.25
68301;BME280;55146;47.468;18.806;2023-04-23T11:04:44;99660.56;;;24.28;25.87
68301;BME280;55146;47.468;18.806;2023-04-23T11:07:11;99655.25;;;24.00;25.17
68301;BME280;55146;47.468;18.806;2023-04-23T11:09:40;99640.44;;;24.03;24.96
68301;BME280;55146;47.468;18.806;2023-04-23T11:14:47;99651.28;;;24.50;24.12
68301;BME280;55146;47.468;18.806;2023-04-23T11:17:15;99648.97;;;24.55;26.08
68301;BME280;55146;47.468;18.806;2023-04-23T11:19:41;99649.16;;;24.70;25.00
68301;BME280;55146;47.468;18.806;2023-04-23T11:22:14;99647.28;;;24.51;24.82
68301;BME280;55146;47.468;18.806;2023-04-23T11:24:43;99652.97;;;24.54;24.37
68301;BME280;55146;47.468;18.806;2023-04-23T11:27:14;99638.13;;;24.57;23.49
68301;BME280;55146;47.468;18.806;2023-04-23T11:29:42;99643.97;;;24.19;24.69
68301;BME280;55146;47.468;18.806;2023-04-23T11:32:09;99644.84;;;24.23;26.28
68301;BME280;55146;47.468;18.806;2023-04-23T11:34:45;99641.56;;;24.44;25.37
68301;BME280;55146;47.468;18.806;2023-04-23T11:37:13;99642.25;;;24.90;24.80
68301;BME280;55146;47.468;18.806;2023-04-23T11:39:39;99633.66;;;24.83;24.18
68301;BME280;55146;47.468;18.806;2023-04-23T11:42:12;99624.84;;;24.84;25.29
68301;BME280;55146;47.468;18.806;2023-04-23T11:44:39;99636.94;;;24.85;26.39
68301;BME280;55146;47.468;18.806;2023-04-23T11:47:09;99622.38;;;24.27;24.34
68301;BME280;55146;47.468;18.806;2023-04-23T11:49:42;99619.91;;;24.22;24.28
68301;BME280;55146;47.468;18.806;2023-04-23T11:52:09;99624.28;;;24.45;23.89
68301;BME280;55146;47.468;18.806;2023-04-23T11:54:34;99620.66;;;24.71;24.91
68301;BME280;55146;47.468;18.806;2023-04-23T11:57:00;99624.88;;;24.88;22.90
68301;BME280;55146;47.468;18.806;2023-04-23T11:59:27;99618.78;;;24.52;22.54
68301;BME280;55146;47.468;18.806;2023-04-23T12:01:55;99622.34;;;24.49;22.94
68301;BME280;55146;47.468;18.806;2023-04-23T12:04:25;99606.81;;;24.33;23.52
68301;BME280;55146;47.468;18.806;2023-04-23T12:06:52;99614.78;;;24.53;23.50
68301;BME280;55146;47.468;18.806;2023-04-23T12:09:20;99614.00;;;24.07;23.49
68301;BME280;55146;47.468;18.806;2023-04-23T12:11:46;99614.53;;;24.13;23.06
68301;BME280;55146;47.468;18.806;2023-04-23T12:14:13;99607.78;;;23.72;23.51
68301;BME280;55146;47.468;18.806;2023-04-23T12:16:41;99610.06;;;23.63;23.16
68301;BME280;55146;47.468;18.806;2023-04-23T12:19:15;99599.72;;;23.48;23.62
68301;BME280;55146;47.468;18.806;2023-04-23T12:22:02;99593.25;;;23.89;24.84
68301;BME280;55146;47.468;18.806;2023-04-23T12:24:45;99599.19;;;23.84;24.46
68301;BME280;55146;47.468;18.806;2023-04-23T12:27:13;99599.75;;;23.93;24.06
68301;BME280;55146;47.468;18.806;2023-04-23T12:29:40;99593.44;;;23.77;23.97
68301;BME280;55146;47.468;18.806;2023-04-23T12:32:09;99587.59;;;23.63;24.94
68301;BME280;55146;47.468;18.806;2023-04-23T12:34:34;99595.25;;;23.66;23.97
68301;BME280;55146;47.468;18.806;2023-04-23T12:37:05;99589.31;;;23.48;24.18
68301;BME280;55146;47.468;18.806;2023-04-23T12:39:32;99580.66;;;23.57;23.75
68301;BME280;55146;47.468;18.806;2023-04-23T12:42:00;99580.59;;;23.76;24.46
68301;BME280;55146;47.468;18.806;2023-04-23T12:44:28;99583.19;;;23.65;24.08
68301;BME280;55146;47.468;18.806;2023-04-23T12:47:02;99580.66;;;23.79;23.27
68301;BME280;55146;47.468;18.806;2023-04-23T12:49:28;99576.47;;;23.70;23.77
68301;BME280;55146;47.468;18.806;2023-04-23T12:51:55;99585.50;;;24.05;25.07